sensor_id;sensor_type;location;lat;lon;timestamp;temperature;humidity
66871;DHT22;53780;44.998;9.926;2023-08-20T00:00:56;27.66;64.77
66871;DHT22;53780;44.998;9.926;2023-08-20T00:04:00;27.50;65.15
66871;DHT22;53780;44.998;9.926;2023-08-20T00:07:04;27.53;65.05
66871;DHT22;53780;44.998;9.926;2023-08-20T00:10:08;27.55;64.95
66871;DHT22;53780;44.998;9.926;2023-08-20T00:13:13;27.53;64.98
66871;DHT22;53780;44.998;9.926;2023-08-20T00:16:17;27.46;65.11
66871;DHT22;53780;44.998;9.926;2023-08-20T00:19:21;27.45;64.99
66871;DHT22;53780;44.998;9.926;2023-08-20T00:22:26;27.42;65.17
66871;DHT22;53780;44.998;9.926;2023-08-20T00:25:30;27.35;65.26
66871;DHT22;53780;44.998;9.926;2023-08-20T00:28:34;27.38;64.79
66871;DHT22;53780;44.998;9.926;2023-08-20T00:31:40;27.34;64.60
66871;DHT22;53780;44.998;9.926;2023-08-20T00:34:44;27.27;65.20
66871;DHT22;53780;44.998;9.926;2023-08-20T00:37:48;27.21;65.64
66871;DHT22;53780;44.998;9.926;2023-08-20T00:40:52;27.11;66.28
66871;DHT22;53780;44.998;9.926;2023-08-20T00:43:56;27.05;66.23
66871;DHT22;53780;44.998;9.926;2023-08-20T00:47:01;27.01;66.66
66871;DHT22;53780;44.998;9.926;2023-08-20T00:50:07;26.93;67.13
66871;DHT22;53780;44.998;9.926;2023-08-20T00:53:12;26.90;67.44
66871;DHT22;53780;44.998;9.926;2023-08-20T00:56:16;26.84;67.70
66871;DHT22;53780;44.998;9.926;2023-08-20T00:59:20;26.82;68.03
66871;DHT22;53780;44.998;9.926;2023-08-20T01:02:24;26.74;68.17
66871;DHT22;53780;44.998;9.926;2023-08-20T01:05:32;26.73;68.38
66871;DHT22;53780;44.998;9.926;2023-08-20T01:08:40;26.63;68.44
66871;DHT22;53780;44.998;9.926;2023-08-20T01:11:48;26.55;68.17
66871;DHT22;53780;44.998;9.926;2023-08-20T01:14:53;26.42;68.99
66871;DHT22;53780;44.998;9.926;2023-08-20T01:17:57;26.33;69.42
66871;DHT22;53780;44.998;9.926;2023-08-20T01:21:05;26.32;69.75
66871;DHT22;53780;44.998;9.926;2023-08-20T01:24:43;26.32;69.81
66871;DHT22;53780;44.998;9.926;2023-08-20T01:28:18;26.36;69.65
66871;DHT22;53780;44.998;9.926;2023-08-20T01:31:22;26.28;69.88
66871;DHT22;53780;44.998;9.926;2023-08-20T01:34:26;26.21;70.16
66871;DHT22;53780;44.998;9.926;2023-08-20T01:37:30;26.14;70.43
66871;DHT22;53780;44.998;9.926;2023-08-20T01:40:34;26.11;70.63
66871;DHT22;53780;44.998;9.926;2023-08-20T01:43:38;26.08;70.79
66871;DHT22;53780;44.998;9.926;2023-08-20T01:46:42;26.04;70.94
66871;DHT22;53780;44.998;9.926;2023-08-20T01:49:46;26.06;70.84
66871;DHT22;53780;44.998;9.926;2023-08-20T01:52:49;26.17;70.70
66871;DHT22;53780;44.998;9.926;2023-08-20T01:55:53;26.17;70.70
66871;DHT22;53780;44.998;9.926;2023-08-20T01:58:58;26.14;70.85
66871;DHT22;53780;44.998;9.926;2023-08-20T02:02:02;26.17;70.94
66871;DHT22;53780;44.998;9.926;2023-08-20T02:05:08;26.15;71.00
66871;DHT22;53780;44.998;9.926;2023-08-20T02:08:16;26.18;71.06
66871;DHT22;53780;44.998;9.926;2023-08-20T02:11:19;26.17;71.03
66871;DHT22;53780;44.998;9.926;2023-08-20T02:14:23;26.17;71.10
66871;DHT22;53780;44.998;9.926;2023-08-20T02:17:27;26.12;70.82
66871;DHT22;53780;44.998;9.926;2023-08-20T02:20:31;26.08;70.97
66871;DHT22;53780;44.998;9.926;2023-08-20T02:23:34;26.08;71.08
66871;DHT22;53780;44.998;9.926;2023-08-20T02:26:38;25.94;71.58
66871;DHT22;53780;44.998;9.926;2023-08-20T02:29:42;25.97;71.56
66871;DHT22;53780;44.998;9.926;2023-08-20T02:32:46;25.97;71.52
66871;DHT22;53780;44.998;9.926;2023-08-20T02:35:50;25.94;71.65
66871;DHT22;53780;44.998;9.926;2023-08-20T02:38:53;25.94;71.70
66871;DHT22;53780;44.998;9.926;2023-08-20T02:41:59;25.88;71.89
66871;DHT22;53780;44.998;9.926;2023-08-20T02:45:04;25.87;71.80
66871;DHT22;53780;44.998;9.926;2023-08-20T02:48:08;25.81;70.69
66871;DHT22;53780;44.998;9.926;2023-08-20T02:51:12;25.75;71.58
66871;DHT22;53780;44.998;9.926;2023-08-20T02:54:16;25.71;71.83
66871;DHT22;53780;44.998;9.926;2023-08-20T02:57:20;25.69;72.36
66871;DHT22;53780;44.998;9.926;2023-08-20T03:00:24;25.71;72.38
66871;DHT22;53780;44.998;9.926;2023-08-20T03:03:28;25.73;72.35
66871;DHT22;53780;44.998;9.926;2023-08-20T03:06:32;25.67;72.51
66871;DHT22;53780;44.998;9.926;2023-08-20T03:09:37;25.69;72.34
66871;DHT22;53780;44.998;9.926;2023-08-20T03:12:40;25.66;72.51
66871;DHT22;53780;44.998;9.926;2023-08-20T03:15:44;25.64;70.63
66871;DHT22;53780;44.998;9.926;2023-08-20T03:18:48;25.60;68.95
66871;DHT22;53780;44.998;9.926;2023-08-20T03:21:52;25.51;66.97
66871;DHT22;53780;44.998;9.926;2023-08-20T03:24:55;25.49;67.12
66871;DHT22;53780;44.998;9.926;2023-08-20T03:27:59;25.43;67.31
66871;DHT22;53780;44.998;9.926;2023-08-20T03:31:03;25.39;67.04
66871;DHT22;53780;44.998;9.926;2023-08-20T03:34:10;25.30;66.86
66871;DHT22;53780;44.998;9.926;2023-08-20T03:37:15;25.29;67.26
66871;DHT22;53780;44.998;9.926;2023-08-20T03:40:19;25.22;68.31
66871;DHT22;53780;44.998;9.926;2023-08-20T03:43:23;25.18;69.18
66871;DHT22;53780;44.998;9.926;2023-08-20T03:46:27;25.16;70.01
66871;DHT22;53780;44.998;9.926;2023-08-20T03:49:31;25.14;69.95
66871;DHT22;53780;44.998;9.926;2023-08-20T03:52:35;25.11;69.23
66871;DHT22;53780;44.998;9.926;2023-08-20T03:55:39;25.08;69.13
66871;DHT22;53780;44.998;9.926;2023-08-20T03:58:43;25.05;69.37
66871;DHT22;53780;44.998;9.926;2023-08-20T04:01:47;25.01;69.32
66871;DHT22;53780;44.998;9.926;2023-08-20T04:04:51;24.98;69.16
66871;DHT22;53780;44.998;9.926;2023-08-20T04:07:55;24.91;69.72
66871;DHT22;53780;44.998;9.926;2023-08-20T04:10:59;24.88;69.81
66871;DHT22;53780;44.998;9.926;2023-08-20T04:14:03;24.87;69.46
66871;DHT22;53780;44.998;9.926;2023-08-20T04:17:07;24.82;69.65
66871;DHT22;53780;44.998;9.926;2023-08-20T04:20:10;24.85;70.49
66871;DHT22;53780;44.998;9.926;2023-08-20T04:23:15;24.80;71.02
66871;DHT22;53780;44.998;9.926;2023-08-20T04:26:19;24.77;71.57
66871;DHT22;53780;44.998;9.926;2023-08-20T04:29:22;24.77;71.80
66871;DHT22;53780;44.998;9.926;2023-08-20T04:32:26;24.78;72.20
66871;DHT22;53780;44.998;9.926;2023-08-20T04:35:30;24.75;72.29
66871;DHT22;53780;44.998;9.926;2023-08-20T04:38:34;24.75;72.47
66871;DHT22;53780;44.998;9.926;2023-08-20T04:41:39;24.74;72.87
66871;DHT22;53780;44.998;9.926;2023-08-20T04:44:47;24.72;73.16
66871;DHT22;53780;44.998;9.926;2023-08-20T04:47:50;24.72;72.38
66871;DHT22;53780;44.998;9.926;2023-08-20T04:50:54;24.71;69.84
66871;DHT22;53780;44.998;9.926;2023-08-20T04:53:59;24.70;71.97
66871;DHT22;53780;44.998;9.926;2023-08-20T04:57:03;24.68;73.64
66871;DHT22;53780;44.998;9.926;2023-08-20T05:00:07;24.68;73.88
66871;DHT22;53780;44.998;9.926;2023-08-20T05:03:39;24.80;73.48
66871;DHT22;53780;44.998;9.926;2023-08-20T05:06:43;24.88;73.50
66871;DHT22;53780;44.998;9.926;2023-08-20T05:09:47;25.07;73.57
66871;DHT22;53780;44.998;9.926;2023-08-20T05:12:51;25.27;72.90
66871;DHT22;53780;44.998;9.926;2023-08-20T05:15:55;25.50;72.38
66871;DHT22;53780;44.998;9.926;2023-08-20T05:19:02;25.73;71.24
66871;DHT22;53780;44.998;9.926;2023-08-20T05:22:06;25.98;71.06
66871;DHT22;53780;44.998;9.926;2023-08-20T05:25:12;26.21;69.88
66871;DHT22;53780;44.998;9.926;2023-08-20T05:28:18;26.40;69.58
66871;DHT22;53780;44.998;9.926;2023-08-20T05:31:22;26.57;69.47
66871;DHT22;53780;44.998;9.926;2023-08-20T05:34:25;26.64;68.47
66871;DHT22;53780;44.998;9.926;2023-08-20T05:37:29;26.61;68.38
66871;DHT22;53780;44.998;9.926;2023-08-20T05:40:34;26.63;68.84
66871;DHT22;53780;44.998;9.926;2023-08-20T05:43:38;26.84;67.89
66871;DHT22;53780;44.998;9.926;2023-08-20T05:46:43;27.11;66.60
66871;DHT22;53780;44.998;9.926;2023-08-20T05:49:49;27.48;65.51
66871;DHT22;53780;44.998;9.926;2023-08-20T05:52:54;27.85;64.49
66871;DHT22;53780;44.998;9.926;2023-08-20T05:55:59;28.24;63.83
66871;DHT22;53780;44.998;9.926;2023-08-20T05:59:04;28.53;63.26
66871;DHT22;53780;44.998;9.926;2023-08-20T06:02:08;28.90;63.00
66871;DHT22;53780;44.998;9.926;2023-08-20T06:05:11;29.21;61.75
66871;DHT22;53780;44.998;9.926;2023-08-20T06:08:16;29.45;60.35
66871;DHT22;53780;44.998;9.926;2023-08-20T06:11:20;29.73;61.30
66871;DHT22;53780;44.998;9.926;2023-08-20T06:14:24;30.23;59.46
66871;DHT22;53780;44.998;9.926;2023-08-20T06:17:28;30.72;57.58
66871;DHT22;53780;44.998;9.926;2023-08-20T06:20:32;31.11;56.53
66871;DHT22;53780;44.998;9.926;2023-08-20T06:23:35;31.30;55.07
66871;DHT22;53780;44.998;9.926;2023-08-20T06:26:39;31.49;55.49
66871;DHT22;53780;44.998;9.926;2023-08-20T06:29:43;31.78;55.51
66871;DHT22;53780;44.998;9.926;2023-08-20T06:32:47;31.99;54.29
66871;DHT22;53780;44.998;9.926;2023-08-20T06:35:50;32.23;53.62
66871;DHT22;53780;44.998;9.926;2023-08-20T06:38:54;32.42;52.95
66871;DHT22;53780;44.998;9.926;2023-08-20T06:41:58;32.40;54.15
66871;DHT22;53780;44.998;9.926;2023-08-20T06:45:03;32.43;52.70
66871;DHT22;53780;44.998;9.926;2023-08-20T06:48:07;32.52;52.84
66871;DHT22;53780;44.998;9.926;2023-08-20T06:51:14;32.87;52.26
66871;DHT22;53780;44.998;9.926;2023-08-20T06:54:21;33.24;52.20
66871;DHT22;53780;44.998;9.926;2023-08-20T06:57:25;33.53;52.03
66871;DHT22;53780;44.998;9.926;2023-08-20T07:00:29;33.89;50.74
66871;DHT22;53780;44.998;9.926;2023-08-20T07:03:38;34.29;50.45
66871;DHT22;53780;44.998;9.926;2023-08-20T07:06:42;34.56;49.72
66871;DHT22;53780;44.998;9.926;2023-08-20T07:09:46;34.80;49.02
66871;DHT22;53780;44.998;9.926;2023-08-20T07:12:49;34.99;48.16
66871;DHT22;53780;44.998;9.926;2023-08-20T07:15:54;35.33;48.21
66871;DHT22;53780;44.998;9.926;2023-08-20T07:18:58;35.61;46.93
66871;DHT22;53780;44.998;9.926;2023-08-20T07:22:02;35.65;46.02
66871;DHT22;53780;44.998;9.926;2023-08-20T07:25:06;35.59;45.22
66871;DHT22;53780;44.998;9.926;2023-08-20T07:28:09;35.70;45.55
66871;DHT22;53780;44.998;9.926;2023-08-20T07:31:13;35.91;45.13
66871;DHT22;53780;44.998;9.926;2023-08-20T07:34:17;36.00;44.06
66871;DHT22;53780;44.998;9.926;2023-08-20T07:37:22;36.16;44.44
66871;DHT22;53780;44.998;9.926;2023-08-20T07:40:25;36.41;44.29
66871;DHT22;53780;44.998;9.926;2023-08-20T07:43:29;36.62;44.68
66871;DHT22;53780;44.998;9.926;2023-08-20T07:46:33;36.80;43.85
66871;DHT22;53780;44.998;9.926;2023-08-20T07:49:37;36.94;43.47
66871;DHT22;53780;44.998;9.926;2023-08-20T07:52:40;36.92;43.44
66871;DHT22;53780;44.998;9.926;2023-08-20T07:55:44;36.96;43.23
66871;DHT22;53780;44.998;9.926;2023-08-20T07:58:48;37.28;42.70
66871;DHT22;53780;44.998;9.926;2023-08-20T08:01:52;37.35;42.64
66871;DHT22;53780;44.998;9.926;2023-08-20T08:04:55;37.46;43.61
66871;DHT22;53780;44.998;9.926;2023-08-20T08:08:05;37.78;42.61
66871;DHT22;53780;44.998;9.926;2023-08-20T08:11:09;37.88;42.85
66871;DHT22;53780;44.998;9.926;2023-08-20T08:14:13;38.17;42.18
66871;DHT22;53780;44.998;9.926;2023-08-20T08:17:17;38.25;41.10
66871;DHT22;53780;44.998;9.926;2023-08-20T08:20:21;38.35;41.31
66871;DHT22;53780;44.998;9.926;2023-08-20T08:23:25;38.44;40.96
66871;DHT22;53780;44.998;9.926;2023-08-20T08:26:30;38.49;40.49
66871;DHT22;53780;44.998;9.926;2023-08-20T08:29:34;38.48;40.07
66871;DHT22;53780;44.998;9.926;2023-08-20T08:32:38;38.56;40.87
66871;DHT22;53780;44.998;9.926;2023-08-20T08:35:41;38.63;41.52
66871;DHT22;53780;44.998;9.926;2023-08-20T08:38:45;38.82;40.95
66871;DHT22;53780;44.998;9.926;2023-08-20T08:41:51;39.06;42.16
66871;DHT22;53780;44.998;9.926;2023-08-20T08:44:55;39.14;39.82
66871;DHT22;53780;44.998;9.926;2023-08-20T08:48:02;39.41;39.71
66871;DHT22;53780;44.998;9.926;2023-08-20T08:51:06;39.54;38.90
66871;DHT22;53780;44.998;9.926;2023-08-20T08:54:10;39.57;39.98
66871;DHT22;53780;44.998;9.926;2023-08-20T08:57:15;39.44;38.25
66871;DHT22;53780;44.998;9.926;2023-08-20T09:00:19;39.28;39.65
66871;DHT22;53780;44.998;9.926;2023-08-20T09:03:23;39.34;39.69
66871;DHT22;53780;44.998;9.926;2023-08-20T09:06:47;39.44;38.96
66871;DHT22;53780;44.998;9.926;2023-08-20T09:09:58;39.42;39.56
66871;DHT22;53780;44.998;9.926;2023-08-20T09:13:03;39.59;38.21
66871;DHT22;53780;44.998;9.926;2023-08-20T09:16:11;39.55;38.23
66871;DHT22;53780;44.998;9.926;2023-08-20T09:19:15;39.58;39.24
66871;DHT22;53780;44.998;9.926;2023-08-20T09:22:19;39.68;37.72
66871;DHT22;53780;44.998;9.926;2023-08-20T09:25:22;39.68;37.57
66871;DHT22;53780;44.998;9.926;2023-08-20T09:28:26;39.72;38.44
66871;DHT22;53780;44.998;9.926;2023-08-20T09:31:38;39.64;37.50
66871;DHT22;53780;44.998;9.926;2023-08-20T09:34:42;39.79;37.49
66871;DHT22;53780;44.998;9.926;2023-08-20T09:37:45;39.76;36.96
66871;DHT22;53780;44.998;9.926;2023-08-20T09:40:51;39.68;37.27
66871;DHT22;53780;44.998;9.926;2023-08-20T09:43:57;39.79;37.59
66871;DHT22;53780;44.998;9.926;2023-08-20T09:47:05;39.92;37.78
66871;DHT22;53780;44.998;9.926;2023-08-20T09:50:10;39.85;36.75
66871;DHT22;53780;44.998;9.926;2023-08-20T09:53:26;39.89;37.12
66871;DHT22;53780;44.998;9.926;2023-08-20T09:56:35;40.09;37.73
66871;DHT22;53780;44.998;9.926;2023-08-20T09:59:41;40.02;36.03
66871;DHT22;53780;44.998;9.926;2023-08-20T10:02:45;39.96;36.27
66871;DHT22;53780;44.998;9.926;2023-08-20T10:05:50;39.86;37.09
66871;DHT22;53780;44.998;9.926;2023-08-20T10:08:54;40.06;36.57
66871;DHT22;53780;44.998;9.926;2023-08-20T10:11:57;40.05;35.70
66871;DHT22;53780;44.998;9.926;2023-08-20T10:15:02;39.89;34.01
66871;DHT22;53780;44.998;9.926;2023-08-20T10:18:08;39.88;34.53
66871;DHT22;53780;44.998;9.926;2023-08-20T10:21:13;40.02;35.81
66871;DHT22;53780;44.998;9.926;2023-08-20T10:24:17;39.95;34.92
66871;DHT22;53780;44.998;9.926;2023-08-20T10:27:27;39.92;34.74
66871;DHT22;53780;44.998;9.926;2023-08-20T10:30:30;39.89;33.63
66871;DHT22;53780;44.998;9.926;2023-08-20T10:33:35;39.88;34.05
66871;DHT22;53780;44.998;9.926;2023-08-20T10:36:41;39.85;34.86
66871;DHT22;53780;44.998;9.926;2023-08-20T10:39:53;39.72;34.26
66871;DHT22;53780;44.998;9.926;2023-08-20T10:43:01;39.64;33.92
66871;DHT22;53780;44.998;9.926;2023-08-20T10:49:16;39.51;35.29
66871;DHT22;53780;44.998;9.926;2023-08-20T10:52:23;39.45;35.65
66871;DHT22;53780;44.998;9.926;2023-08-20T10:55:27;39.45;35.30
66871;DHT22;53780;44.998;9.926;2023-08-20T10:58:31;39.42;35.20
66871;DHT22;53780;44.998;9.926;2023-08-20T11:01:35;39.41;36.25
66871;DHT22;53780;44.998;9.926;2023-08-20T11:04:39;39.41;34.91
66871;DHT22;53780;44.998;9.926;2023-08-20T11:07:48;39.41;35.41
66871;DHT22;53780;44.998;9.926;2023-08-20T11:10:53;39.20;34.93
66871;DHT22;53780;44.998;9.926;2023-08-20T11:13:57;39.20;34.93
66871;DHT22;53780;44.998;9.926;2023-08-20T11:17:01;39.18;35.37
66871;DHT22;53780;44.998;9.926;2023-08-20T11:20:05;39.15;34.89
66871;DHT22;53780;44.998;9.926;2023-08-20T11:23:11;39.09;35.98
66871;DHT22;53780;44.998;9.926;2023-08-20T11:26:17;39.02;35.29
66871;DHT22;53780;44.998;9.926;2023-08-20T11:29:21;38.99;35.83
66871;DHT22;53780;44.998;9.926;2023-08-20T11:32:25;38.92;35.26
66871;DHT22;53780;44.998;9.926;2023-08-20T11:35:28;38.84;34.98
66871;DHT22;53780;44.998;9.926;2023-08-20T11:38:32;38.82;35.79
66871;DHT22;53780;44.998;9.926;2023-08-20T11:41:37;38.86;35.97
66871;DHT22;53780;44.998;9.926;2023-08-20T11:44:48;38.65;35.71
66871;DHT22;53780;44.998;9.926;2023-08-20T11:47:55;38.51;35.60
66871;DHT22;53780;44.998;9.926;2023-08-20T11:51:01;38.29;35.38
66871;DHT22;53780;44.998;9.926;2023-08-20T11:54:06;37.98;34.72
66871;DHT22;53780;44.998;9.926;2023-08-20T11:57:11;37.77;35.40
66871;DHT22;53780;44.998;9.926;2023-08-20T12:00:24;37.69;35.73
66871;DHT22;53780;44.998;9.926;2023-08-20T12:03:29;37.56;36.62
66871;DHT22;53780;44.998;9.926;2023-08-20T12:06:35;37.49;36.72
66871;DHT22;53780;44.998;9.926;2023-08-20T12:09:39;37.40;37.97
66871;DHT22;53780;44.998;9.926;2023-08-20T12:12:43;37.30;37.76
66871;DHT22;53780;44.998;9.926;2023-08-20T12:15:47;37.22;37.58
66871;DHT22;53780;44.998;9.926;2023-08-20T12:18:52;37.14;36.98
66871;DHT22;53780;44.998;9.926;2023-08-20T12:21:59;37.07;37.89
66871;DHT22;53780;44.998;9.926;2023-08-20T12:25:02;36.98;36.54
66871;DHT22;53780;44.998;9.926;2023-08-20T12:28:06;36.87;36.91
66871;DHT22;53780;44.998;9.926;2023-08-20T12:31:11;36.77;36.36
66871;DHT22;53780;44.998;9.926;2023-08-20T12:34:15;36.68;37.01
66871;DHT22;53780;44.998;9.926;2023-08-20T12:37:18;36.63;37.98
66871;DHT22;53780;44.998;9.926;2023-08-20T12:40:22;36.56;38.36
66871;DHT22;53780;44.998;9.926;2023-08-20T12:43:26;36.43;38.50
66871;DHT22;53780;44.998;9.926;2023-08-20T12:46:30;36.37;39.06
66871;DHT22;53780;44.998;9.926;2023-08-20T12:49:34;36.30;39.17
66871;DHT22;53780;44.998;9.926;2023-08-20T12:52:37;36.26;38.17
66871;DHT22;53780;44.998;9.926;2023-08-20T12:55:41;36.18;39.50
66871;DHT22;53780;44.998;9.926;2023-08-20T12:58:45;36.12;39.33
66871;DHT22;53780;44.998;9.926;2023-08-20T13:01:49;36.05;38.79
66871;DHT22;53780;44.998;9.926;2023-08-20T13:04:53;35.98;38.03
66871;DHT22;53780;44.998;9.926;2023-08-20T13:08:00;35.93;38.24
66871;DHT22;53780;44.998;9.926;2023-08-20T13:11:06;35.84;38.86
66871;DHT22;53780;44.998;9.926;2023-08-20T13:14:10;35.78;38.98
66871;DHT22;53780;44.998;9.926;2023-08-20T13:17:14;35.71;39.99
66871;DHT22;53780;44.998;9.926;2023-08-20T13:20:19;35.62;39.75
66871;DHT22;53780;44.998;9.926;2023-08-20T13:23:28;35.64;39.70
66871;DHT22;53780;44.998;9.926;2023-08-20T13:26:31;35.58;39.53
66871;DHT22;53780;44.998;9.926;2023-08-20T13:29:35;35.51;40.47
66871;DHT22;53780;44.998;9.926;2023-08-20T13:32:41;35.44;39.85
66871;DHT22;53780;44.998;9.926;2023-08-20T13:35:45;35.41;40.05
66871;DHT22;53780;44.998;9.926;2023-08-20T13:38:49;35.40;39.50
66871;DHT22;53780;44.998;9.926;2023-08-20T13:41:53;35.38;39.50
66871;DHT22;53780;44.998;9.926;2023-08-20T13:44:57;35.36;39.59
66871;DHT22;53780;44.998;9.926;2023-08-20T13:48:01;35.27;39.70
66871;DHT22;53780;44.998;9.926;2023-08-20T13:51:04;35.20;40.29
66871;DHT22;53780;44.998;9.926;2023-08-20T13:54:08;35.16;39.96
66871;DHT22;53780;44.998;9.926;2023-08-20T13:57:12;35.10;40.43
66871;DHT22;53780;44.998;9.926;2023-08-20T14:00:16;35.03;40.73
66871;DHT22;53780;44.998;9.926;2023-08-20T14:03:20;34.99;40.79
66871;DHT22;53780;44.998;9.926;2023-08-20T14:06:24;34.96;41.16
66871;DHT22;53780;44.998;9.926;2023-08-20T14:09:27;34.98;41.30
66871;DHT22;53780;44.998;9.926;2023-08-20T14:12:31;35.02;41.05
66871;DHT22;53780;44.998;9.926;2023-08-20T14:15:35;34.93;41.21
66871;DHT22;53780;44.998;9.926;2023-08-20T14:18:40;34.86;41.78
66871;DHT22;53780;44.998;9.926;2023-08-20T14:21:44;34.90;41.42
66871;DHT22;53780;44.998;9.926;2023-08-20T14:24:47;34.86;41.41
66871;DHT22;53780;44.998;9.926;2023-08-20T14:27:51;34.80;42.00
66871;DHT22;53780;44.998;9.926;2023-08-20T14:30:55;34.76;42.13
66871;DHT22;53780;44.998;9.926;2023-08-20T14:33:59;34.75;42.30
66871;DHT22;53780;44.998;9.926;2023-08-20T14:37:03;34.76;41.58
66871;DHT22;53780;44.998;9.926;2023-08-20T14:40:07;34.79;41.52
66871;DHT22;53780;44.998;9.926;2023-08-20T14:43:13;34.76;42.24
66871;DHT22;53780;44.998;9.926;2023-08-20T14:46:17;34.69;41.95
66871;DHT22;53780;44.998;9.926;2023-08-20T14:49:21;34.63;42.26
66871;DHT22;53780;44.998;9.926;2023-08-20T14:52:25;34.59;42.32
66871;DHT22;53780;44.998;9.926;2023-08-20T14:55:29;34.55;42.15
66871;DHT22;53780;44.998;9.926;2023-08-20T14:58:33;34.56;42.13
66871;DHT22;53780;44.998;9.926;2023-08-20T15:01:37;34.62;42.39
66871;DHT22;53780;44.998;9.926;2023-08-20T15:04:40;34.62;42.59
66871;DHT22;53780;44.998;9.926;2023-08-20T15:07:44;34.59;42.71
66871;DHT22;53780;44.998;9.926;2023-08-20T15:10:59;34.56;43.38
66871;DHT22;53780;44.998;9.926;2023-08-20T15:14:03;34.56;43.44
66871;DHT22;53780;44.998;9.926;2023-08-20T15:17:07;34.61;42.57
66871;DHT22;53780;44.998;9.926;2023-08-20T15:20:11;34.61;42.76
66871;DHT22;53780;44.998;9.926;2023-08-20T15:23:15;34.55;42.71
66871;DHT22;53780;44.998;9.926;2023-08-20T15:26:18;34.51;43.20
66871;DHT22;53780;44.998;9.926;2023-08-20T15:29:22;34.44;43.08
66871;DHT22;53780;44.998;9.926;2023-08-20T15:32:28;34.44;43.23
66871;DHT22;53780;44.998;9.926;2023-08-20T15:35:32;34.47;43.29
66871;DHT22;53780;44.998;9.926;2023-08-20T15:38:36;34.51;43.56
66871;DHT22;53780;44.998;9.926;2023-08-20T15:41:40;34.48;43.76
66871;DHT22;53780;44.998;9.926;2023-08-20T15:44:46;34.49;43.34
66871;DHT22;53780;44.998;9.926;2023-08-20T15:47:50;34.52;43.16
66871;DHT22;53780;44.998;9.926;2023-08-20T15:50:54;34.56;42.86
66871;DHT22;53780;44.998;9.926;2023-08-20T15:53:58;34.52;42.89
66871;DHT22;53780;44.998;9.926;2023-08-20T15:57:03;34.47;42.90
66871;DHT22;53780;44.998;9.926;2023-08-20T16:00:07;34.44;43.14
66871;DHT22;53780;44.998;9.926;2023-08-20T16:03:17;34.41;43.37
66871;DHT22;53780;44.998;9.926;2023-08-20T16:06:21;34.41;43.02
66871;DHT22;53780;44.998;9.926;2023-08-20T16:09:25;34.44;43.49
66871;DHT22;53780;44.998;9.926;2023-08-20T16:12:30;34.47;43.52
66871;DHT22;53780;44.998;9.926;2023-08-20T16:15:35;34.41;43.22
66871;DHT22;53780;44.998;9.926;2023-08-20T16:18:39;34.41;42.61
66871;DHT22;53780;44.998;9.926;2023-08-20T16:21:43;34.35;43.16
66871;DHT22;53780;44.998;9.926;2023-08-20T16:24:47;34.33;43.32
66871;DHT22;53780;44.998;9.926;2023-08-20T16:27:51;34.28;42.37
66871;DHT22;53780;44.998;9.926;2023-08-20T16:30:55;34.27;43.11
66871;DHT22;53780;44.998;9.926;2023-08-20T16:33:59;34.25;43.03
66871;DHT22;53780;44.998;9.926;2023-08-20T16:37:03;34.27;42.74
66871;DHT22;53780;44.998;9.926;2023-08-20T16:40:07;34.25;42.77
66871;DHT22;53780;44.998;9.926;2023-08-20T16:43:11;34.29;43.15
66871;DHT22;53780;44.998;9.926;2023-08-20T16:46:15;34.28;44.41
66871;DHT22;53780;44.998;9.926;2023-08-20T16:49:19;34.23;44.57
66871;DHT22;53780;44.998;9.926;2023-08-20T16:52:22;34.20;44.76
66871;DHT22;53780;44.998;9.926;2023-08-20T16:55:26;34.27;44.25
66871;DHT22;53780;44.998;9.926;2023-08-20T16:58:30;34.24;44.10
66871;DHT22;53780;44.998;9.926;2023-08-20T17:01:34;34.17;44.22
66871;DHT22;53780;44.998;9.926;2023-08-20T17:04:38;34.13;44.42
66871;DHT22;53780;44.998;9.926;2023-08-20T17:07:41;34.11;44.20
66871;DHT22;53780;44.998;9.926;2023-08-20T17:10:45;34.10;44.42
66871;DHT22;53780;44.998;9.926;2023-08-20T17:13:49;34.00;44.65
66871;DHT22;53780;44.998;9.926;2023-08-20T17:16:53;33.98;44.96
66871;DHT22;53780;44.998;9.926;2023-08-20T17:19:57;33.96;44.89
66871;DHT22;53780;44.998;9.926;2023-08-20T17:23:01;33.87;45.20
66871;DHT22;53780;44.998;9.926;2023-08-20T17:26:04;33.79;45.56
66871;DHT22;53780;44.998;9.926;2023-08-20T17:29:08;33.73;45.83
66871;DHT22;53780;44.998;9.926;2023-08-20T17:32:12;33.73;45.71
66871;DHT22;53780;44.998;9.926;2023-08-20T17:35:15;33.65;45.91
66871;DHT22;53780;44.998;9.926;2023-08-20T17:38:19;33.59;46.10
66871;DHT22;53780;44.998;9.926;2023-08-20T17:41:24;33.58;45.96
66871;DHT22;53780;44.998;9.926;2023-08-20T17:44:28;33.53;46.11
66871;DHT22;53780;44.998;9.926;2023-08-20T17:47:31;33.46;46.46
66871;DHT22;53780;44.998;9.926;2023-08-20T17:50:35;33.45;46.77
66871;DHT22;53780;44.998;9.926;2023-08-20T17:53:39;33.38;46.98
66871;DHT22;53780;44.998;9.926;2023-08-20T17:56:43;33.33;47.10
66871;DHT22;53780;44.998;9.926;2023-08-20T17:59:46;33.26;47.37
66871;DHT22;53780;44.998;9.926;2023-08-20T18:02:51;33.21;47.32
66871;DHT22;53780;44.998;9.926;2023-08-20T18:05:55;33.11;47.53
66871;DHT22;53780;44.998;9.926;2023-08-20T18:09:00;33.08;47.70
66871;DHT22;53780;44.998;9.926;2023-08-20T18:12:04;32.98;47.84
66871;DHT22;53780;44.998;9.926;2023-08-20T18:15:08;32.95;47.91
66871;DHT22;53780;44.998;9.926;2023-08-20T18:18:12;32.90;48.06
66871;DHT22;53780;44.998;9.926;2023-08-20T18:21:16;32.83;48.32
66871;DHT22;53780;44.998;9.926;2023-08-20T18:24:20;32.77;48.50
66871;DHT22;53780;44.998;9.926;2023-08-20T18:27:23;32.73;48.75
66871;DHT22;53780;44.998;9.926;2023-08-20T18:30:27;32.66;48.93
66871;DHT22;53780;44.998;9.926;2023-08-20T18:33:32;32.60;49.21
66871;DHT22;53780;44.998;9.926;2023-08-20T18:36:36;32.52;49.41
66871;DHT22;53780;44.998;9.926;2023-08-20T18:39:40;32.46;49.68
66871;DHT22;53780;44.998;9.926;2023-08-20T18:42:44;32.42;49.73
66871;DHT22;53780;44.998;9.926;2023-08-20T18:45:48;32.35;49.85
66871;DHT22;53780;44.998;9.926;2023-08-20T18:48:52;32.31;49.97
66871;DHT22;53780;44.998;9.926;2023-08-20T18:51:56;32.23;50.07
66871;DHT22;53780;44.998;9.926;2023-08-20T18:55:00;32.19;50.08
66871;DHT22;53780;44.998;9.926;2023-08-20T18:58:04;32.11;50.15
66871;DHT22;53780;44.998;9.926;2023-08-20T19:01:08;32.09;50.17
66871;DHT22;53780;44.998;9.926;2023-08-20T19:04:12;32.05;50.18
66871;DHT22;53780;44.998;9.926;2023-08-20T19:07:16;31.98;50.31
66871;DHT22;53780;44.998;9.926;2023-08-20T19:10:21;31.95;50.47
66871;DHT22;53780;44.998;9.926;2023-08-20T19:13:25;31.92;50.58
66871;DHT22;53780;44.998;9.926;2023-08-20T19:16:28;31.88;50.64
66871;DHT22;53780;44.998;9.926;2023-08-20T19:19:33;31.85;50.69
66871;DHT22;53780;44.998;9.926;2023-08-20T19:22:38;31.80;50.67
66871;DHT22;53780;44.998;9.926;2023-08-20T19:25:44;31.77;50.92
66871;DHT22;53780;44.998;9.926;2023-08-20T19:28:48;31.73;50.96